sensor_id;sensor_type;location;lat;lon;timestamp;P1;durP1;ratioP1;P2;durP2;ratioP2
1400;SDS011;46518;48.842;8.926;2022-11-18T00:02:16;1.23;;;0.90;;
1400;SDS011;46518;48.842;8.926;2022-11-18T00:04:45;1.45;;;0.70;;
1400;SDS011;46518;48.842;8.926;2022-11-18T00:07:13;1.20;;;1.10;;
1400;SDS011;46518;48.842;8.926;2022-11-18T00:09:41;1.08;;;0.98;;
1400;SDS011;46518;48.842;8.926;2022-11-18T00:12:10;1.27;;;1.17;;
1400;SDS011;46518;48.842;8.926;2022-11-18T00:14:57;1.10;;;0.90;;
1400;SDS011;46518;48.842;8.926;2022-11-18T00:17:25;0.90;;;0.90;;
1400;SDS011;46518;48.842;8.926;2022-11-18T00:19:53;3.17;;;1.40;;
1400;SDS011;46518;48.842;8.926;2022-11-18T00:22:21;1.50;;;1.00;;
1400;SDS011;46518;48.842;8.926;2022-11-18T00:24:55;1.45;;;1.35;;
1400;SDS011;46518;48.842;8.926;2022-11-18T00:27:23;1.10;;;1.00;;
1400;SDS011;46518;48.842;8.926;2022-11-18T00:29:51;1.00;;;0.90;;
1400;SDS011;46518;48.842;8.926;2022-11-18T00:32:21;1.30;;;1.02;;
1400;SDS011;46518;48.842;8.926;2022-11-18T00:34:49;1.02;;;0.80;;
1400;SDS011;46518;48.842;8.926;2022-11-18T00:37:17;1.67;;;1.27;;
1400;SDS011;46518;48.842;8.926;2022-11-18T00:39:46;2.10;;;1.10;;
1400;SDS011;46518;48.842;8.926;2022-11-18T00:42:14;1.30;;;1.20;;
1400;SDS011;46518;48.842;8.926;2022-11-18T00:44:56;1.55;;;1.20;;
1400;SDS011;46518;48.842;8.926;2022-11-18T00:47:25;0.95;;;0.77;;
1400;SDS011;46518;48.842;8.926;2022-11-18T00:49:54;1.25;;;0.90;;
1400;SDS011;46518;48.842;8.926;2022-11-18T00:52:22;2.92;;;1.15;;
1400;SDS011;46518;48.842;8.926;2022-11-18T00:54:50;1.63;;;0.80;;
1400;SDS011;46518;48.842;8.926;2022-11-18T00:57:18;1.08;;;0.98;;
1400;SDS011;46518;48.842;8.926;2022-11-18T00:59:46;0.95;;;0.80;;
1400;SDS011;46518;48.842;8.926;2022-11-18T01:02:14;1.38;;;0.90;;
1400;SDS011;46518;48.842;8.926;2022-11-18T01:04:43;0.93;;;0.80;;
1400;SDS011;46518;48.842;8.926;2022-11-18T01:07:12;1.02;;;0.60;;
1400;SDS011;46518;48.842;8.926;2022-11-18T01:09:40;3.28;;;0.90;;
1400;SDS011;46518;48.842;8.926;2022-11-18T01:12:08;1.17;;;0.80;;
1400;SDS011;46518;48.842;8.926;2022-11-18T01:15:04;1.90;;;0.70;;
1400;SDS011;46518;48.842;8.926;2022-11-18T01:17:32;1.23;;;0.80;;
1400;SDS011;46518;48.842;8.926;2022-11-18T01:20:02;2.85;;;0.90;;
1400;SDS011;46518;48.842;8.926;2022-11-18T01:22:30;1.58;;;0.77;;
1400;SDS011;46518;48.842;8.926;2022-11-18T01:24:58;0.70;;;0.60;;
1400;SDS011;46518;48.842;8.926;2022-11-18T01:27:35;1.77;;;0.80;;
1400;SDS011;46518;48.842;8.926;2022-11-18T01:30:04;2.47;;;0.70;;
1400;SDS011;46518;48.842;8.926;2022-11-18T01:32:33;0.90;;;0.70;;
1400;SDS011;46518;48.842;8.926;2022-11-18T01:35:03;2.65;;;0.60;;
1400;SDS011;46518;48.842;8.926;2022-11-18T01:37:31;0.90;;;0.70;;
1400;SDS011;46518;48.842;8.926;2022-11-18T01:39:59;0.95;;;0.80;;
1400;SDS011;46518;48.842;8.926;2022-11-18T01:42:27;1.58;;;0.85;;
1400;SDS011;46518;48.842;8.926;2022-11-18T01:45:27;0.98;;;0.65;;
1400;SDS011;46518;48.842;8.926;2022-11-18T01:48:01;1.40;;;0.60;;
1400;SDS011;46518;48.842;8.926;2022-11-18T01:50:36;0.90;;;0.73;;
1400;SDS011;46518;48.842;8.926;2022-11-18T01:53:11;2.08;;;0.60;;
1400;SDS011;46518;48.842;8.926;2022-11-18T01:55:45;1.25;;;0.70;;
1400;SDS011;46518;48.842;8.926;2022-11-18T01:58:18;3.15;;;1.08;;
1400;SDS011;46518;48.842;8.926;2022-11-18T02:00:49;0.85;;;0.60;;
1400;SDS011;46518;48.842;8.926;2022-11-18T02:03:17;1.00;;;0.70;;
1400;SDS011;46518;48.842;8.926;2022-11-18T02:05:50;1.27;;;0.60;;
1400;SDS011;46518;48.842;8.926;2022-11-18T02:08:20;0.60;;;0.50;;
1400;SDS011;46518;48.842;8.926;2022-11-18T02:10:49;3.17;;;0.70;;
1400;SDS011;46518;48.842;8.926;2022-11-18T02:13:18;0.80;;;0.65;;
1400;SDS011;46518;48.842;8.926;2022-11-18T02:15:48;1.33;;;0.60;;
1400;SDS011;46518;48.842;8.926;2022-11-18T02:18:28;2.75;;;0.70;;
1400;SDS011;46518;48.842;8.926;2022-11-18T02:21:07;0.50;;;0.50;;
1400;SDS011;46518;48.842;8.926;2022-11-18T02:23:59;0.65;;;0.52;;
1400;SDS011;46518;48.842;8.926;2022-11-18T02:26:52;0.70;;;0.60;;
1400;SDS011;46518;48.842;8.926;2022-11-18T02:29:33;0.55;;;0.55;;
1400;SDS011;46518;48.842;8.926;2022-11-18T02:32:08;0.85;;;0.85;;
1400;SDS011;46518;48.842;8.926;2022-11-18T02:34:43;1.23;;;0.90;;
1400;SDS011;46518;48.842;8.926;2022-11-18T02:37:17;1.95;;;1.00;;
1400;SDS011;46518;48.842;8.926;2022-11-18T02:39:53;0.50;;;0.40;;
1400;SDS011;46518;48.842;8.926;2022-11-18T02:42:25;2.75;;;0.80;;
1400;SDS011;46518;48.842;8.926;2022-11-18T02:44:59;0.82;;;0.80;;
1400;SDS011;46518;48.842;8.926;2022-11-18T02:47:30;0.50;;;0.40;;
1400;SDS011;46518;48.842;8.926;2022-11-18T02:50:02;0.50;;;0.50;;
1400;SDS011;46518;48.842;8.926;2022-11-18T02:52:33;0.73;;;0.70;;
1400;SDS011;46518;48.842;8.926;2022-11-18T02:55:04;1.63;;;0.75;;
1400;SDS011;46518;48.842;8.926;2022-11-18T02:57:37;1.58;;;0.60;;
1400;SDS011;46518;48.842;8.926;2022-11-18T03:00:10;0.70;;;0.70;;
1400;SDS011;46518;48.842;8.926;2022-11-18T03:02:39;0.82;;;0.70;;
1400;SDS011;46518;48.842;8.926;2022-11-18T03:05:10;0.70;;;0.60;;
1400;SDS011;46518;48.842;8.926;2022-11-18T03:07:44;0.70;;;0.70;;
1400;SDS011;46518;48.842;8.926;2022-11-18T03:10:17;0.82;;;0.82;;
1400;SDS011;46518;48.842;8.926;2022-11-18T03:12:50;2.05;;;0.70;;
1400;SDS011;46518;48.842;8.926;2022-11-18T03:15:27;1.13;;;0.50;;
1400;SDS011;46518;48.842;8.926;2022-11-18T03:18:05;0.88;;;0.70;;
1400;SDS011;46518;48.842;8.926;2022-11-18T03:20:44;1.30;;;0.50;;
1400;SDS011;46518;48.842;8.926;2022-11-18T03:23:18;0.90;;;0.60;;
1400;SDS011;46518;48.842;8.926;2022-11-18T03:25:52;1.02;;;0.63;;
1400;SDS011;46518;48.842;8.926;2022-11-18T03:28:23;0.50;;;0.50;;
1400;SDS011;46518;48.842;8.926;2022-11-18T03:30:59;0.55;;;0.52;;
1400;SDS011;46518;48.842;8.926;2022-11-18T03:33:38;0.70;;;0.60;;
1400;SDS011;46518;48.842;8.926;2022-11-18T03:36:11;0.70;;;0.70;;
1400;SDS011;46518;48.842;8.926;2022-11-18T03:38:43;0.70;;;0.57;;
1400;SDS011;46518;48.842;8.926;2022-11-18T03:41:15;0.70;;;0.60;;
1400;SDS011;46518;48.842;8.926;2022-11-18T03:43:48;0.60;;;0.60;;
1400;SDS011;46518;48.842;8.926;2022-11-18T03:46:25;0.98;;;0.75;;
1400;SDS011;46518;48.842;8.926;2022-11-18T03:48:57;0.50;;;0.40;;
1400;SDS011;46518;48.842;8.926;2022-11-18T03:51:27;0.60;;;0.50;;
1400;SDS011;46518;48.842;8.926;2022-11-18T03:54:00;0.60;;;0.60;;
1400;SDS011;46518;48.842;8.926;2022-11-18T03:56:36;1.45;;;0.60;;
1400;SDS011;46518;48.842;8.926;2022-11-18T03:59:11;0.50;;;0.40;;
1400;SDS011;46518;48.842;8.926;2022-11-18T04:01:46;0.60;;;0.50;;
1400;SDS011;46518;48.842;8.926;2022-11-18T04:04:19;0.55;;;0.55;;
1400;SDS011;46518;48.842;8.926;2022-11-18T04:06:49;0.70;;;0.43;;
1400;SDS011;46518;48.842;8.926;2022-11-18T04:09:21;0.50;;;0.47;;
1400;SDS011;46518;48.842;8.926;2022-11-18T04:11:54;0.50;;;0.40;;
1400;SDS011;46518;48.842;8.926;2022-11-18T04:14:29;0.50;;;0.40;;
1400;SDS011;46518;48.842;8.926;2022-11-18T04:17:02;1.15;;;0.40;;
1400;SDS011;46518;48.842;8.926;2022-11-18T04:19:34;0.63;;;0.60;;
1400;SDS011;46518;48.842;8.926;2022-11-18T04:22:02;0.77;;;0.40;;
1400;SDS011;46518;48.842;8.926;2022-11-18T04:24:30;0.50;;;0.43;;
1400;SDS011;46518;48.842;8.926;2022-11-18T04:26:59;0.70;;;0.50;;
1400;SDS011;46518;48.842;8.926;2022-11-18T04:29:28;0.40;;;0.40;;
1400;SDS011;46518;48.842;8.926;2022-11-18T04:31:56;0.50;;;0.40;;
1400;SDS011;46518;48.842;8.926;2022-11-18T04:34:26;0.63;;;0.55;;
1400;SDS011;46518;48.842;8.926;2022-11-18T04:36:54;0.55;;;0.43;;
1400;SDS011;46518;48.842;8.926;2022-11-18T04:39:31;1.10;;;0.60;;
1400;SDS011;46518;48.842;8.926;2022-11-18T04:41:59;0.60;;;0.50;;
1400;SDS011;46518;48.842;8.926;2022-11-18T04:44:28;1.83;;;0.68;;
1400;SDS011;46518;48.842;8.926;2022-11-18T04:46:58;0.60;;;0.60;;
1400;SDS011;46518;48.842;8.926;2022-11-18T04:49:29;0.60;;;0.50;;
1400;SDS011;46518;48.842;8.926;2022-11-18T04:51:57;0.68;;;0.50;;
1400;SDS011;46518;48.842;8.926;2022-11-18T04:54:26;0.70;;;0.50;;
1400;SDS011;46518;48.842;8.926;2022-11-18T04:56:54;0.52;;;0.40;;
1400;SDS011;46518;48.842;8.926;2022-11-18T04:59:23;2.08;;;0.88;;
1400;SDS011;46518;48.842;8.926;2022-11-18T05:02:05;0.60;;;0.60;;
1400;SDS011;46518;48.842;8.926;2022-11-18T05:04:35;0.50;;;0.50;;
1400;SDS011;46518;48.842;8.926;2022-11-18T05:07:03;0.60;;;0.50;;
1400;SDS011;46518;48.842;8.926;2022-11-18T05:09:33;0.50;;;0.40;;
1400;SDS011;46518;48.842;8.926;2022-11-18T05:12:01;0.60;;;0.60;;
1400;SDS011;46518;48.842;8.926;2022-11-18T05:14:46;0.70;;;0.50;;
1400;SDS011;46518;48.842;8.926;2022-11-18T05:17:16;0.60;;;0.50;;
1400;SDS011;46518;48.842;8.926;2022-11-18T05:19:46;0.60;;;0.60;;
1400;SDS011;46518;48.842;8.926;2022-11-18T05:22:14;1.05;;;0.70;;
1400;SDS011;46518;48.842;8.926;2022-11-18T05:24:43;0.70;;;0.70;;
1400;SDS011;46518;48.842;8.926;2022-11-18T05:27:11;3.42;;;0.80;;
1400;SDS011;46518;48.842;8.926;2022-11-18T05:29:39;3.38;;;3.10;;
1400;SDS011;46518;48.842;8.926;2022-11-18T05:32:07;0.75;;;0.60;;
1400;SDS011;46518;48.842;8.926;2022-11-18T05:34:35;0.70;;;0.70;;
1400;SDS011;46518;48.842;8.926;2022-11-18T05:37:04;0.60;;;0.50;;
1400;SDS011;46518;48.842;8.926;2022-11-18T05:39:32;0.90;;;0.60;;
1400;SDS011;46518;48.842;8.926;2022-11-18T05:42:02;1.33;;;1.23;;
1400;SDS011;46518;48.842;8.926;2022-11-18T05:44:48;0.80;;;0.80;;
1400;SDS011;46518;48.842;8.926;2022-11-18T05:47:24;0.60;;;0.60;;
1400;SDS011;46518;48.842;8.926;2022-11-18T05:49:52;0.80;;;0.70;;
1400;SDS011;46518;48.842;8.926;2022-11-18T05:52:21;1.02;;;0.60;;
1400;SDS011;46518;48.842;8.926;2022-11-18T05:54:49;1.65;;;0.60;;
1400;SDS011;46518;48.842;8.926;2022-11-18T05:57:18;0.93;;;0.60;;
1400;SDS011;46518;48.842;8.926;2022-11-18T05:59:46;2.53;;;0.60;;
1400;SDS011;46518;48.842;8.926;2022-11-18T06:02:15;0.70;;;0.70;;
1400;SDS011;46518;48.842;8.926;2022-11-18T06:04:47;0.57;;;0.55;;
1400;SDS011;46518;48.842;8.926;2022-11-18T06:07:19;0.60;;;0.60;;
1400;SDS011;46518;48.842;8.926;2022-11-18T06:09:52;0.68;;;0.60;;
1400;SDS011;46518;48.842;8.926;2022-11-18T06:12:30;2.58;;;2.03;;
1400;SDS011;46518;48.842;8.926;2022-11-18T06:15:03;0.70;;;0.63;;
1400;SDS011;46518;48.842;8.926;2022-11-18T06:17:39;2.10;;;0.65;;
1400;SDS011;46518;48.842;8.926;2022-11-18T06:20:10;1.00;;;0.60;;
1400;SDS011;46518;48.842;8.926;2022-11-18T06:22:40;1.08;;;0.80;;
1400;SDS011;46518;48.842;8.926;2022-11-18T06:25:12;0.57;;;0.50;;
1400;SDS011;46518;48.842;8.926;2022-11-18T06:27:41;1.00;;;0.60;;
1400;SDS011;46518;48.842;8.926;2022-11-18T06:30:10;0.75;;;0.60;;
1400;SDS011;46518;48.842;8.926;2022-11-18T06:32:39;0.60;;;0.60;;
1400;SDS011;46518;48.842;8.926;2022-11-18T06:35:07;2.05;;;0.88;;
1400;SDS011;46518;48.842;8.926;2022-11-18T06:37:35;0.80;;;0.57;;
1400;SDS011;46518;48.842;8.926;2022-11-18T06:40:06;0.60;;;0.60;;
1400;SDS011;46518;48.842;8.926;2022-11-18T06:42:35;1.45;;;0.90;;
1400;SDS011;46518;48.842;8.926;2022-11-18T06:45:20;0.60;;;0.60;;
1400;SDS011;46518;48.842;8.926;2022-11-18T06:47:49;0.77;;;0.77;;
1400;SDS011;46518;48.842;8.926;2022-11-18T06:50:16;0.60;;;0.50;;
1400;SDS011;46518;48.842;8.926;2022-11-18T06:52:44;1.00;;;0.90;;
1400;SDS011;46518;48.842;8.926;2022-11-18T06:55:13;1.60;;;0.80;;
1400;SDS011;46518;48.842;8.926;2022-11-18T06:57:42;0.77;;;0.63;;
1400;SDS011;46518;48.842;8.926;2022-11-18T07:00:11;0.80;;;0.68;;
1400;SDS011;46518;48.842;8.926;2022-11-18T07:02:40;1.50;;;0.80;;
1400;SDS011;46518;48.842;8.926;2022-11-18T07:05:08;0.55;;;0.55;;
1400;SDS011;46518;48.842;8.926;2022-11-18T07:07:36;1.00;;;0.60;;
1400;SDS011;46518;48.842;8.926;2022-11-18T07:10:08;0.80;;;0.60;;
1400;SDS011;46518;48.842;8.926;2022-11-18T07:12:38;0.88;;;0.50;;
1400;SDS011;46518;48.842;8.926;2022-11-18T07:15:06;0.80;;;0.50;;
1400;SDS011;46518;48.842;8.926;2022-11-18T07:17:35;1.00;;;0.50;;
1400;SDS011;46518;48.842;8.926;2022-11-18T07:20:04;0.50;;;0.50;;
1400;SDS011;46518;48.842;8.926;2022-11-18T07:22:35;1.02;;;0.50;;
1400;SDS011;46518;48.842;8.926;2022-11-18T07:25:03;0.52;;;0.50;;
1400;SDS011;46518;48.842;8.926;2022-11-18T07:27:32;0.73;;;0.60;;
1400;SDS011;46518;48.842;8.926;2022-11-18T07:30:02;1.02;;;0.63;;
1400;SDS011;46518;48.842;8.926;2022-11-18T07:32:31;1.58;;;1.08;;
1400;SDS011;46518;48.842;8.926;2022-11-18T07:34:59;1.23;;;0.90;;
1400;SDS011;46518;48.842;8.926;2022-11-18T07:37:27;0.90;;;0.90;;
1400;SDS011;46518;48.842;8.926;2022-11-18T07:39:55;0.90;;;0.75;;
1400;SDS011;46518;48.842;8.926;2022-11-18T07:42:34;0.70;;;0.50;;
1400;SDS011;46518;48.842;8.926;2022-11-18T07:45:22;0.60;;;0.55;;
1400;SDS011;46518;48.842;8.926;2022-11-18T07:47:50;0.60;;;0.50;;
1400;SDS011;46518;48.842;8.926;2022-11-18T07:50:18;0.50;;;0.50;;
1400;SDS011;46518;48.842;8.926;2022-11-18T07:52:47;0.90;;;0.50;;
1400;SDS011;46518;48.842;8.926;2022-11-18T07:55:15;0.50;;;0.50;;
1400;SDS011;46518;48.842;8.926;2022-11-18T07:57:43;0.68;;;0.40;;
1400;SDS011;46518;48.842;8.926;2022-11-18T08:00:13;0.50;;;0.43;;
1400;SDS011;46518;48.842;8.926;2022-11-18T08:02:43;0.70;;;0.47;;
1400;SDS011;46518;48.842;8.926;2022-11-18T08:05:11;0.60;;;0.50;;
1400;SDS011;46518;48.842;8.926;2022-11-18T08:07:43;0.40;;;0.40;;
1400;SDS011;46518;48.842;8.926;2022-11-18T08:10:12;1.30;;;0.45;;
1400;SDS011;46518;48.842;8.926;2022-11-18T08:12:40;0.90;;;0.50;;
1400;SDS011;46518;48.842;8.926;2022-11-18T08:15:08;0.52;;;0.50;;
1400;SDS011;46518;48.842;8.926;2022-11-18T08:17:37;0.57;;;0.50;;
1400;SDS011;46518;48.842;8.926;2022-11-18T08:20:07;0.70;;;0.50;;
1400;SDS011;46518;48.842;8.926;2022-11-18T08:22:36;1.15;;;0.50;;
1400;SDS011;46518;48.842;8.926;2022-11-18T08:25:04;0.90;;;0.50;;
1400;SDS011;46518;48.842;8.926;2022-11-18T08:27:33;0.88;;;0.50;;
1400;SDS011;46518;48.842;8.926;2022-11-18T08:30:03;0.63;;;0.40;;
1400;SDS011;46518;48.842;8.926;2022-11-18T08:32:32;0.40;;;0.40;;
1400;SDS011;46518;48.842;8.926;2022-11-18T08:35:00;0.40;;;0.40;;
1400;SDS011;46518;48.842;8.926;2022-11-18T08:37:37;1.30;;;0.40;;
1400;SDS011;46518;48.842;8.926;2022-11-18T08:40:06;0.60;;;0.60;;
1400;SDS011;46518;48.842;8.926;2022-11-18T08:42:35;0.60;;;0.60;;
1400;SDS011;46518;48.842;8.926;2022-11-18T08:45:04;0.52;;;0.50;;
1400;SDS011;46518;48.842;8.926;2022-11-18T08:47:34;0.40;;;0.40;;
1400;SDS011;46518;48.842;8.926;2022-11-18T08:50:02;1.15;;;0.60;;
1400;SDS011;46518;48.842;8.926;2022-11-18T08:52:30;0.40;;;0.40;;
1400;SDS011;46518;48.842;8.926;2022-11-18T08:55:00;0.50;;;0.40;;
1400;SDS011;46518;48.842;8.926;2022-11-18T08:57:29;0.65;;;0.40;;
1400;SDS011;46518;48.842;8.926;2022-11-18T08:59:57;0.70;;;0.45;;
1400;SDS011;46518;48.842;8.926;2022-11-18T09:02:35;0.40;;;0.40;;
1400;SDS011;46518;48.842;8.926;2022-11-18T09:05:04;0.93;;;0.50;;
1400;SDS011;46518;48.842;8.926;2022-11-18T09:07:33;0.57;;;0.50;;
1400;SDS011;46518;48.842;8.926;2022-11-18T09:10:02;1.33;;;0.57;;
1400;SDS011;46518;48.842;8.926;2022-11-18T09:12:31;4.25;;;0.82;;
1400;SDS011;46518;48.842;8.926;2022-11-18T09:15:12;0.60;;;0.50;;
1400;SDS011;46518;48.842;8.926;2022-11-18T09:17:41;0.95;;;0.50;;
1400;SDS011;46518;48.842;8.926;2022-11-18T09:20:09;0.70;;;0.65;;
1400;SDS011;46518;48.842;8.926;2022-11-18T09:22:37;0.60;;;0.52;;
1400;SDS011;46518;48.842;8.926;2022-11-18T09:25:08;1.38;;;1.00;;
1400;SDS011;46518;48.842;8.926;2022-11-18T09:27:36;1.33;;;0.85;;
1400;SDS011;46518;48.842;8.926;2022-11-18T09:30:05;1.38;;;1.10;;
1400;SDS011;46518;48.842;8.926;2022-11-18T09:32:34;1.20;;;1.10;;
1400;SDS011;46518;48.842;8.926;2022-11-18T09:35:02;1.50;;;1.20;;
1400;SDS011;46518;48.842;8.926;2022-11-18T09:37:31;2.13;;;1.92;;
1400;SDS011;46518;48.842;8.926;2022-11-18T09:40:00;1.58;;;1.48;;
1400;SDS011;46518;48.842;8.926;2022-11-18T09:42:34;1.95;;;1.70;;
1400;SDS011;46518;48.842;8.926;2022-11-18T09:45:15;2.00;;;1.60;;
1400;SDS011;46518;48.842;8.926;2022-11-18T09:47:50;2.35;;;2.00;;
1400;SDS011;46518;48.842;8.926;2022-11-18T09:50:23;1.73;;;1.63;;
1400;SDS011;46518;48.842;8.926;2022-11-18T09:53:14;2.83;;;2.20;;
1400;SDS011;46518;48.842;8.926;2022-11-18T09:55:46;2.90;;;2.65;;
1400;SDS011;46518;48.842;8.926;2022-11-18T09:58:17;2.33;;;1.85;;
1400;SDS011;46518;48.842;8.926;2022-11-18T10:00:55;2.40;;;2.20;;
1400;SDS011;46518;48.842;8.926;2022-11-18T10:03:25;3.70;;;2.05;;
1400;SDS011;46518;48.842;8.926;2022-11-18T10:05:56;3.55;;;2.15;;
1400;SDS011;46518;48.842;8.926;2022-11-18T10:08:30;3.20;;;2.60;;
1400;SDS011;46518;48.842;8.926;2022-11-18T10:11:04;2.75;;;1.90;;
1400;SDS011;46518;48.842;8.926;2022-11-18T10:13:42;2.42;;;2.15;;
1400;SDS011;46518;48.842;8.926;2022-11-18T10:16:21;2.72;;;2.35;;
1400;SDS011;46518;48.842;8.926;2022-11-18T10:18:57;2.72;;;2.53;;
1400;SDS011;46518;48.842;8.926;2022-11-18T10:21:38;2.63;;;2.40;;
1400;SDS011;46518;48.842;8.926;2022-11-18T10:24:16;4.20;;;2.20;;
1400;SDS011;46518;48.842;8.926;2022-11-18T10:26:46;2.40;;;2.15;;
1400;SDS011;46518;48.842;8.926;2022-11-18T10:29:23;7.00;;;2.70;;
1400;SDS011;46518;48.842;8.926;2022-11-18T10:31:53;2.88;;;2.40;;
1400;SDS011;46518;48.842;8.926;2022-11-18T10:34:30;2.08;;;1.92;;
1400;SDS011;46518;48.842;8.926;2022-11-18T10:37:00;5.78;;;2.67;;
1400;SDS011;46518;48.842;8.926;2022-11-18T10:39:31;2.60;;;2.40;;
1400;SDS011;46518;48.842;8.926;2022-11-18T10:42:00;3.35;;;2.58;;
1400;SDS011;46518;48.842;8.926;2022-11-18T10:44:36;2.38;;;2.13;;
1400;SDS011;46518;48.842;8.926;2022-11-18T10:47:27;2.40;;;2.20;;
1400;SDS011;46518;48.842;8.926;2022-11-18T10:49:57;2.00;;;1.88;;
1400;SDS011;46518;48.842;8.926;2022-11-18T10:52:26;3.60;;;1.50;;
1400;SDS011;46518;48.842;8.926;2022-11-18T10:55:07;4.15;;;1.80;;
1400;SDS011;46518;48.842;8.926;2022-11-18T10:57:46;1.10;;;1.00;;
1400;SDS011;46518;48.842;8.926;2022-11-18T11:00:34;0.98;;;0.98;;
1400;SDS011;46518;48.842;8.926;2022-11-18T11:03:19;1.40;;;1.00;;
1400;SDS011;46518;48.842;8.926;2022-11-18T11:08:47;2.28;;;1.30;;
1400;SDS011;46518;48.842;8.926;2022-11-18T11:11:23;1.73;;;1.63;;
1400;SDS011;46518;48.842;8.926;2022-11-18T11:13:55;4.30;;;2.10;;
1400;SDS011;46518;48.842;8.926;2022-11-18T11:16:29;2.20;;;2.00;;
1400;SDS011;46518;48.842;8.926;2022-11-18T11:19:02;2.42;;;1.95;;
1400;SDS011;46518;48.842;8.926;2022-11-18T11:21:36;2.03;;;1.83;;
1400;SDS011;46518;48.842;8.926;2022-11-18T11:24:13;1.60;;;1.50;;
1400;SDS011;46518;48.842;8.926;2022-11-18T11:26:45;2.60;;;1.65;;
1400;SDS011;46518;48.842;8.926;2022-11-18T11:29:53;1.90;;;1.70;;
1400;SDS011;46518;48.842;8.926;2022-11-18T11:32:34;3.38;;;1.20;;
1400;SDS011;46518;48.842;8.926;2022-11-18T11:35:20;1.52;;;1.40;;
1400;SDS011;46518;48.842;8.926;2022-11-18T11:37:51;2.20;;;1.90;;
1400;SDS011;46518;48.842;8.926;2022-11-18T11:40:24;2.20;;;1.70;;
1400;SDS011;46518;48.842;8.926;2022-11-18T11:43:13;1.75;;;1.65;;
1400;SDS011;46518;48.842;8.926;2022-11-18T11:46:01;1.60;;;1.50;;
1400;SDS011;46518;48.842;8.926;2022-11-18T11:48:45;2.47;;;1.50;;
1400;SDS011;46518;48.842;8.926;2022-11-18T11:51:24;1.40;;;1.30;;
1400;SDS011;46518;48.842;8.926;2022-11-18T11:56:57;3.42;;;1.40;;
1400;SDS011;46518;48.842;8.926;2022-11-18T11:59:32;1.80;;;1.50;;
1400;SDS011;46518;48.842;8.926;2022-11-18T12:02:24;1.23;;;1.13;;
1400;SDS011;46518;48.842;8.926;2022-11-18T12:05:07;3.22;;;2.00;;
1400;SDS011;46518;48.842;8.926;2022-11-18T12:07:48;2.05;;;1.52;;
1400;SDS011;46518;48.842;8.926;2022-11-18T12:10:33;2.95;;;1.85;;
1400;SDS011;46518;48.842;8.926;2022-11-18T12:13:16;2.55;;;1.70;;
1400;SDS011;46518;48.842;8.926;2022-11-18T12:15:54;2.67;;;2.47;;
1400;SDS011;46518;48.842;8.926;2022-11-18T12:18:33;9.68;;;2.70;;
1400;SDS011;46518;48.842;8.926;2022-11-18T12:21:06;6.85;;;2.75;;
1400;SDS011;46518;48.842;8.926;2022-11-18T12:23:34;2.78;;;2.08;;
1400;SDS011;46518;48.842;8.926;2022-11-18T12:26:03;6.15;;;2.90;;
1400;SDS011;46518;48.842;8.926;2022-11-18T12:28:36;5.63;;;2.50;;
1400;SDS011;46518;48.842;8.926;2022-11-18T12:33:56;4.35;;;2.50;;
1400;SDS011;46518;48.842;8.926;2022-11-18T12:36:28;2.90;;;2.45;;
1400;SDS011;46518;48.842;8.926;2022-11-18T12:38:58;4.90;;;2.17;;
1400;SDS011;46518;48.842;8.926;2022-11-18T12:42:07;2.30;;;2.20;;
1400;SDS011;46518;48.842;8.926;2022-11-18T12:54:23;2.25;;;2.05;;
1400;SDS011;46518;48.842;8.926;2022-11-18T12:56:54;6.97;;;3.53;;
1400;SDS011;46518;48.842;8.926;2022-11-18T12:59:27;2.20;;;1.40;;
1400;SDS011;46518;48.842;8.926;2022-11-18T13:02:16;2.20;;;2.00;;
1400;SDS011;46518;48.842;8.926;2022-11-18T13:05:01;4.35;;;1.55;;
1400;SDS011;46518;48.842;8.926;2022-11-18T13:07:33;2.25;;;2.03;;
1400;SDS011;46518;48.842;8.926;2022-11-18T13:10:26;2.53;;;1.45;;
1400;SDS011;46518;48.842;8.926;2022-11-18T13:12:57;3.65;;;1.90;;
1400;SDS011;46518;48.842;8.926;2022-11-18T13:15:33;3.05;;;2.22;;
1400;SDS011;46518;48.842;8.926;2022-11-18T13:18:26;2.55;;;2.35;;
1400;SDS011;46518;48.842;8.926;2022-11-18T13:20:55;2.38;;;1.65;;
1400;SDS011;46518;48.842;8.926;2022-11-18T13:23:43;3.53;;;1.85;;
1400;SDS011;46518;48.842;8.926;2022-11-18T13:26:24;2.13;;;2.03;;
1400;SDS011;46518;48.842;8.926;2022-11-18T13:31:55;2.97;;;2.45;;
1400;SDS011;46518;48.842;8.926;2022-11-18T13:34:39;5.72;;;2.08;;
1400;SDS011;46518;48.842;8.926;2022-11-18T13:37:14;2.45;;;1.80;;
1400;SDS011;46518;48.842;8.926;2022-11-18T13:39:46;5.50;;;1.75;;
1400;SDS011;46518;48.842;8.926;2022-11-18T13:42:16;2.50;;;2.22;;
1400;SDS011;46518;48.842;8.926;2022-11-18T13:44:50;3.22;;;1.98;;
1400;SDS011;46518;48.842;8.926;2022-11-18T13:47:22;1.88;;;1.77;;
1400;SDS011;46518;48.842;8.926;2022-11-18T13:49:56;3.38;;;2.10;;
1400;SDS011;46518;48.842;8.926;2022-11-18T13:52:30;2.95;;;2.33;;
1400;SDS011;46518;48.842;8.926;2022-11-18T13:55:07;2.47;;;1.20;;
1400;SDS011;46518;48.842;8.926;2022-11-18T13:57:45;5.43;;;2.15;;
1400;SDS011;46518;48.842;8.926;2022-11-18T14:00:20;3.05;;;1.70;;
1400;SDS011;46518;48.842;8.926;2022-11-18T14:02:52;3.63;;;2.10;;
1400;SDS011;46518;48.842;8.926;2022-11-18T14:05:27;2.47;;;1.35;;
1400;SDS011;46518;48.842;8.926;2022-11-18T14:07:57;1.65;;;1.55;;
1400;SDS011;46518;48.842;8.926;2022-11-18T14:10:34;1.70;;;1.35;;
1400;SDS011;46518;48.842;8.926;2022-11-18T14:15:58;2.42;;;1.83;;
1400;SDS011;46518;48.842;8.926;2022-11-18T14:18:29;1.83;;;1.65;;
1400;SDS011;46518;48.842;8.926;2022-11-18T14:20:59;1.95;;;1.73;;
1400;SDS011;46518;48.842;8.926;2022-11-18T14:23:29;2.28;;;2.03;;
1400;SDS011;46518;48.842;8.926;2022-11-18T14:26:02;2.88;;;1.60;;
1400;SDS011;46518;48.842;8.926;2022-11-18T14:28:32;2.80;;;1.70;;
1400;SDS011;46518;48.842;8.926;2022-11-18T14:31:04;4.00;;;1.67;;
1400;SDS011;46518;48.842;8.926;2022-11-18T14:33:34;5.65;;;2.00;;
1400;SDS011;46518;48.842;8.926;2022-11-18T14:36:08;2.55;;;1.65;;
1400;SDS011;46518;48.842;8.926;2022-11-18T14:38:42;6.80;;;2.13;;
1400;SDS011;46518;48.842;8.926;2022-11-18T14:41:33;3.22;;;2.40;;
1400;SDS011;46518;48.842;8.926;2022-11-18T14:44:16;4.72;;;2.28;;
1400;SDS011;46518;48.842;8.926;2022-11-18T14:46:46;4.40;;;2.63;;
1400;SDS011;46518;48.842;8.926;2022-11-18T14:49:18;4.90;;;2.30;;
1400;SDS011;46518;48.842;8.926;2022-11-18T14:51:49;2.40;;;1.95;;
1400;SDS011;46518;48.842;8.926;2022-11-18T14:54:18;3.30;;;2.70;;
1400;SDS011;46518;48.842;8.926;2022-11-18T14:56:55;5.38;;;2.42;;
1400;SDS011;46518;48.842;8.926;2022-11-18T14:59:26;3.47;;;2.20;;
1400;SDS011;46518;48.842;8.926;2022-11-18T15:01:55;2.95;;;2.10;;
1400;SDS011;46518;48.842;8.926;2022-11-18T15:04:24;4.93;;;2.60;;
1400;SDS011;46518;48.842;8.926;2022-11-18T15:06:52;3.72;;;2.55;;
1400;SDS011;46518;48.842;8.926;2022-11-18T15:09:21;5.00;;;2.10;;
1400;SDS011;46518;48.842;8.926;2022-11-18T15:11:50;2.83;;;2.63;;
1400;SDS011;46518;48.842;8.926;2022-11-18T15:14:20;3.33;;;2.15;;
1400;SDS011;46518;48.842;8.926;2022-11-18T15:16:48;2.33;;;2.13;;
1400;SDS011;46518;48.842;8.926;2022-11-18T15:19:16;2.38;;;2.17;;
1400;SDS011;46518;48.842;8.926;2022-11-18T15:21:44;4.70;;;2.08;;
1400;SDS011;46518;48.842;8.926;2022-11-18T15:24:12;6.72;;;2.42;;
1400;SDS011;46518;48.842;8.926;2022-11-18T15:26:41;4.35;;;2.40;;
1400;SDS011;46518;48.842;8.926;2022-11-18T15:29:13;4.55;;;2.28;;
1400;SDS011;46518;48.842;8.926;2022-11-18T15:31:45;3.50;;;2.72;;
1400;SDS011;46518;48.842;8.926;2022-11-18T15:34:14;4.25;;;2.10;;
1400;SDS011;46518;48.842;8.926;2022-11-18T15:36:43;2.13;;;1.88;;
1400;SDS011;46518;48.842;8.926;2022-11-18T15:39:13;6.60;;;2.88;;
1400;SDS011;46518;48.842;8.926;2022-11-18T15:41:42;3.10;;;2.80;;
1400;SDS011;46518;48.842;8.926;2022-11-18T15:44:10;3.42;;;2.47;;
1400;SDS011;46518;48.842;8.926;2022-11-18T15:46:38;3.40;;;2.40;;
1400;SDS011;46518;48.842;8.926;2022-11-18T15:49:11;3.60;;;2.55;;
1400;SDS011;46518;48.842;8.926;2022-11-18T15:51:40;4.05;;;2.60;;
1400;SDS011;46518;48.842;8.926;2022-11-18T15:54:08;3.95;;;3.20;;
1400;SDS011;46518;48.842;8.926;2022-11-18T15:56:37;3.33;;;2.97;;
1400;SDS011;46518;48.842;8.926;2022-11-18T15:59:06;3.20;;;2.60;;